createdAt,value
2019-03-16T00:01:21.442Z,9.89
2019-03-16T00:03:51.591Z,9.93
2019-03-16T00:06:21.784Z,9.95
2019-03-16T00:08:51.926Z,9.94
2019-03-16T00:11:22.106Z,9.90
2019-03-16T00:13:52.338Z,9.90
2019-03-16T00:16:22.564Z,9.96
2019-03-16T00:18:53.629Z,9.92
2019-03-16T00:21:24.244Z,9.94
2019-03-16T00:23:54.463Z,9.96
2019-03-16T00:26:25.560Z,9.99
2019-03-16T00:28:55.849Z,9.99
2019-03-16T00:31:26.002Z,9.99
2019-03-16T00:33:56.983Z,9.96
2019-03-16T00:36:27.180Z,9.98
2019-03-16T00:38:57.338Z,9.97
2019-03-16T00:41:28.388Z,9.96
2019-03-16T00:43:58.556Z,9.94
2019-03-16T00:46:29.699Z,9.96
2019-03-16T00:48:59.856Z,9.92
2019-03-16T00:51:30.869Z,9.89
2019-03-16T00:54:01.036Z,9.85
2019-03-16T00:56:31.323Z,9.86
2019-03-16T00:59:02.250Z,9.89
2019-03-16T01:01:55.389Z,9.88
2019-03-16T01:04:51.132Z,9.91
2019-03-16T01:07:49.010Z,9.91
2019-03-16T01:10:45.428Z,9.89
2019-03-16T01:13:41.079Z,9.88
2019-03-16T01:16:37.834Z,9.88
2019-03-16T01:19:34.590Z,9.88
2019-03-16T01:22:30.687Z,9.93
2019-03-16T01:25:26.045Z,9.90
2019-03-16T01:28:23.506Z,9.90
2019-03-16T01:31:18.870Z,9.87
2019-03-16T01:34:16.442Z,9.86
2019-03-16T01:37:13.016Z,9.89
2019-03-16T01:40:08.552Z,9.85
2019-03-16T01:43:06.288Z,9.83
2019-03-16T01:46:02.063Z,9.79
2019-03-16T01:48:58.218Z,9.79
2019-03-16T01:51:54.750Z,9.77
2019-03-16T01:54:51.052Z,9.76
2019-03-16T01:57:47.006Z,9.76
2019-03-16T02:00:43.781Z,9.74
2019-03-16T02:03:39.320Z,9.73
2019-03-16T02:06:35.916Z,9.74
2019-03-16T02:09:33.426Z,9.73
2019-03-16T02:12:28.849Z,9.71
2019-03-16T02:15:25.812Z,9.69
2019-03-16T02:18:21.485Z,9.68
2019-03-16T02:21:17.333Z,9.66
2019-03-16T02:24:13.072Z,9.63
2019-03-16T02:27:09.635Z,9.60
2019-03-16T02:30:06.326Z,9.57
2019-03-16T02:33:12.767Z,9.56
2019-03-16T02:36:00.700Z,9.55
2019-03-16T02:38:57.254Z,9.55
2019-03-16T02:41:53.773Z,9.52
2019-03-16T02:44:49.387Z,9.51
2019-03-16T02:47:45.951Z,9.51
2019-03-16T02:50:43.791Z,9.52
2019-03-16T02:53:40.379Z,9.54
2019-03-16T02:56:37.131Z,9.52
2019-03-16T02:59:34.869Z,9.49
2019-03-16T03:02:31.444Z,9.47
2019-03-16T03:05:26.842Z,9.47
2019-03-16T03:11:14.029Z,9.47
2019-03-16T03:14:10.488Z,9.48
2019-03-16T03:17:05.921Z,9.49
2019-03-16T03:20:03.405Z,9.45
2019-03-16T03:22:59.976Z,9.41
2019-03-16T03:25:55.490Z,9.37
2019-03-16T03:28:51.147Z,9.35
2019-03-16T03:31:46.961Z,9.33
2019-03-16T03:34:44.504Z,9.32
2019-03-16T03:37:43.085Z,9.29
2019-03-16T03:40:39.851Z,9.31
2019-03-16T03:43:36.554Z,9.33
2019-03-16T03:46:33.130Z,9.33
2019-03-16T03:49:29.535Z,9.34
2019-03-16T03:52:26.318Z,9.33
2019-03-16T03:55:23.967Z,9.36
2019-03-16T03:58:20.343Z,9.41
2019-03-16T04:01:17.674Z,9.40
2019-03-16T04:04:15.728Z,9.38
2019-03-16T04:07:09.794Z,9.34
2019-03-16T04:10:04.755Z,9.33
2019-03-16T04:13:01.196Z,9.32
2019-03-16T04:15:56.989Z,9.32
2019-03-16T04:18:52.175Z,9.28
2019-03-16T04:21:49.770Z,9.32
2019-03-16T04:24:45.726Z,9.33
2019-03-16T04:27:41.832Z,9.29
2019-03-16T04:30:38.363Z,9.29
2019-03-16T04:33:36.173Z,9.26
2019-03-16T04:36:31.616Z,9.26
2019-03-16T04:39:29.096Z,9.30
2019-03-16T04:42:25.518Z,9.31
2019-03-16T04:45:22.428Z,9.35
2019-03-16T04:48:20.238Z,9.33
2019-03-16T04:51:17.014Z,9.32
2019-03-16T04:54:13.601Z,9.34
2019-03-16T04:57:10.356Z,9.38
2019-03-16T05:00:07.142Z,9.40
2019-03-16T05:03:02.731Z,9.37
2019-03-16T05:05:59.364Z,9.37
2019-03-16T05:08:56.106Z,9.39
2019-03-16T05:11:53.888Z,9.37
2019-03-16T05:14:49.828Z,9.36
2019-03-16T05:17:45.544Z,9.38
2019-03-16T05:20:42.200Z,9.42
2019-03-16T05:23:37.660Z,9.45
2019-03-16T05:26:34.196Z,9.47
2019-03-16T05:29:29.899Z,9.47
2019-03-16T05:32:28.425Z,9.45
2019-03-16T05:35:24.118Z,9.47
2019-03-16T05:38:19.993Z,9.50
2019-03-16T05:41:16.713Z,9.50
2019-03-16T05:44:12.297Z,9.52
2019-03-16T05:47:08.844Z,9.54
2019-03-16T05:50:04.566Z,9.58
2019-03-16T05:53:00.998Z,9.58
2019-03-16T05:55:57.838Z,9.59
2019-03-16T05:58:55.327Z,9.60
2019-03-16T06:01:51.239Z,9.61
2019-03-16T06:04:47.723Z,9.68
2019-03-16T06:07:44.593Z,9.71
2019-03-16T06:10:40.242Z,9.68
2019-03-16T06:13:37.265Z,9.68
2019-03-16T06:16:32.612Z,9.71
2019-03-16T06:19:29.094Z,9.74
2019-03-16T06:22:25.003Z,9.76
2019-03-16T06:25:21.371Z,9.79
2019-03-16T06:28:18.237Z,9.83
2019-03-16T06:31:13.819Z,9.90
2019-03-16T06:34:11.592Z,9.90
2019-03-16T06:37:06.398Z,9.88
2019-03-16T06:40:03.141Z,9.89
2019-03-16T06:42:59.823Z,9.93
2019-03-16T06:45:55.963Z,10.00
2019-03-16T06:48:51.092Z,10.06
2019-03-16T06:51:47.987Z,10.06
2019-03-16T06:54:44.695Z,10.07
2019-03-16T06:57:41.400Z,10.09
2019-03-16T07:00:39.264Z,10.13
2019-03-16T07:03:35.872Z,10.14
2019-03-16T07:06:31.527Z,10.16
2019-03-16T07:09:26.115Z,10.20
2019-03-16T07:12:23.313Z,10.23
2019-03-16T07:15:18.856Z,10.25
2019-03-16T07:18:15.709Z,10.29
2019-03-16T07:21:13.607Z,10.34
2019-03-16T07:24:10.393Z,10.36
2019-03-16T07:27:07.183Z,10.41
2019-03-16T07:30:02.649Z,10.46
2019-03-16T07:33:00.739Z,10.47
2019-03-16T07:35:57.058Z,10.53
2019-03-16T07:38:53.596Z,10.48
2019-03-16T07:41:49.035Z,10.59
2019-03-16T07:44:46.597Z,10.64
2019-03-16T07:47:42.432Z,10.68
2019-03-16T07:50:39.023Z,10.72
2019-03-16T07:53:34.686Z,10.75
2019-03-16T07:56:29.258Z,10.79
2019-03-16T07:59:26.010Z,10.87
2019-03-16T08:02:21.816Z,10.95
2019-03-16T08:05:19.436Z,10.99
2019-03-16T08:08:15.415Z,11.02
2019-03-16T08:11:11.050Z,11.05
2019-03-16T08:14:08.670Z,11.06
2019-03-16T08:17:04.142Z,11.05
2019-03-16T08:20:00.860Z,11.11
2019-03-16T08:22:56.638Z,11.23
2019-03-16T08:25:53.205Z,11.38
2019-03-16T08:28:49.065Z,11.43
2019-03-16T08:31:45.662Z,11.38
2019-03-16T08:34:43.507Z,11.45
2019-03-16T08:37:39.281Z,11.47
2019-03-16T08:40:35.407Z,11.47
2019-03-16T08:43:31.015Z,11.38
2019-03-16T08:46:26.776Z,11.34
2019-03-16T08:49:22.608Z,11.38
2019-03-16T08:52:19.150Z,11.43
2019-03-16T08:55:17.203Z,11.47
2019-03-16T08:58:15.188Z,11.49
2019-03-16T09:01:11.799Z,11.49
2019-03-16T09:04:09.139Z,11.45
2019-03-16T09:07:05.798Z,11.38
2019-03-16T09:10:01.396Z,11.36
2019-03-16T09:12:57.568Z,11.39
2019-03-16T09:15:55.339Z,11.45
2019-03-16T09:18:50.848Z,11.40
2019-03-16T09:21:47.211Z,11.38
2019-03-16T09:24:44.993Z,11.41
2019-03-16T09:27:41.166Z,11.44
2019-03-16T09:30:36.825Z,11.46
2019-03-16T09:33:33.360Z,11.46
2019-03-16T09:36:27.972Z,11.45
2019-03-16T09:39:24.575Z,11.45
2019-03-16T09:42:21.416Z,11.36
2019-03-16T09:45:18.059Z,11.36
2019-03-16T09:48:14.764Z,11.41
2019-03-16T09:51:10.235Z,11.43
2019-03-16T09:54:06.779Z,11.47
2019-03-16T09:57:01.957Z,11.49
2019-03-16T09:59:58.237Z,11.52
2019-03-16T10:02:54.781Z,11.53
2019-03-16T10:05:52.603Z,11.52
2019-03-16T10:08:49.346Z,11.49
2019-03-16T10:11:44.900Z,11.50
2019-03-16T10:14:41.423Z,11.53
2019-03-16T10:17:37.043Z,11.56
2019-03-16T10:20:33.550Z,11.58
2019-03-16T10:23:30.235Z,11.58
2019-03-16T10:26:28.034Z,11.61
2019-03-16T10:29:25.532Z,11.66
2019-03-16T10:32:21.281Z,11.74
2019-03-16T10:35:17.955Z,11.84
2019-03-16T10:38:15.388Z,11.91
2019-03-16T10:41:11.769Z,11.98
2019-03-16T10:44:07.485Z,12.02
2019-03-16T10:47:04.743Z,12.11
2019-03-16T10:50:01.152Z,12.17
2019-03-16T10:52:56.771Z,12.21
2019-03-16T10:55:54.315Z,12.19
2019-03-16T10:58:56.500Z,12.14
2019-03-16T11:01:46.764Z,12.29
2019-03-16T11:04:43.045Z,12.29
2019-03-16T11:07:40.819Z,12.29
2019-03-16T11:10:35.669Z,12.23
2019-03-16T11:13:31.754Z,12.30
2019-03-16T11:16:28.269Z,12.32
2019-03-16T11:19:24.016Z,12.38
2019-03-16T11:22:20.809Z,12.37
2019-03-16T11:25:17.286Z,12.43
2019-03-16T11:28:14.034Z,12.44
2019-03-16T11:31:09.696Z,12.34
2019-03-16T11:34:05.816Z,12.38
2019-03-16T11:37:01.899Z,12.41
2019-03-16T11:39:58.090Z,12.46
2019-03-16T11:42:53.637Z,12.54
2019-03-16T11:45:50.451Z,12.82
2019-03-16T11:48:47.033Z,13.06
2019-03-16T11:51:43.772Z,13.05
2019-03-16T11:54:39.753Z,13.05
2019-03-16T11:57:36.003Z,12.96
2019-03-16T12:00:32.035Z,12.84
2019-03-16T12:03:27.821Z,12.77
2019-03-16T12:06:24.331Z,12.70
2019-03-16T12:09:22.326Z,12.61
2019-03-16T12:12:18.904Z,12.58
2019-03-16T12:15:14.360Z,12.68
2019-03-16T12:18:12.023Z,12.89
2019-03-16T12:21:09.849Z,13.03
2019-03-16T12:24:05.510Z,13.18
2019-03-16T12:27:02.903Z,13.21
2019-03-16T12:29:58.331Z,13.22
2019-03-16T12:32:54.892Z,13.23
2019-03-16T12:35:52.587Z,13.29
2019-03-16T12:38:49.173Z,13.45
2019-03-16T12:41:45.775Z,13.61
2019-03-16T12:44:41.195Z,13.62
2019-03-16T12:47:38.499Z,13.40
2019-03-16T12:50:34.280Z,13.22
2019-03-16T12:53:30.900Z,13.01
2019-03-16T12:56:26.289Z,12.93
2019-03-16T12:59:22.384Z,12.99
2019-03-16T13:02:18.973Z,13.05
2019-03-16T13:05:14.443Z,13.36
2019-03-16T13:08:10.997Z,13.63
2019-03-16T13:11:07.563Z,13.93
2019-03-16T13:14:03.282Z,14.01
2019-03-16T13:16:59.139Z,14.00
2019-03-16T13:19:55.851Z,14.12
2019-03-16T13:22:51.554Z,14.36
2019-03-16T13:25:49.288Z,14.48
2019-03-16T13:28:46.875Z,14.45
2019-03-16T13:31:42.189Z,14.36
2019-03-16T13:34:38.695Z,14.14
2019-03-16T13:37:33.506Z,14.07
2019-03-16T13:40:30.034Z,14.05
2019-03-16T13:43:25.575Z,13.98
2019-03-16T13:46:23.350Z,13.94
2019-03-16T13:49:20.102Z,13.93
2019-03-16T13:52:16.821Z,13.90
2019-03-16T13:55:13.598Z,13.83
2019-03-16T13:58:09.231Z,13.84
2019-03-16T14:01:05.385Z,14.00
2019-03-16T14:04:03.051Z,14.18
2019-03-16T14:06:57.574Z,14.18
2019-03-16T14:09:53.316Z,14.18
2019-03-16T14:12:49.863Z,14.07
2019-03-16T14:15:46.423Z,14.09
2019-03-16T14:18:43.066Z,14.18
2019-03-16T14:21:39.943Z,14.17
2019-03-16T14:24:35.733Z,14.11
2019-03-16T14:27:32.385Z,14.16
2019-03-16T14:30:40.488Z,14.19
2019-03-16T14:33:24.521Z,14.34
2019-03-16T14:36:21.097Z,14.51
2019-03-16T14:39:17.503Z,14.63
2019-03-16T14:42:14.496Z,14.81
2019-03-16T14:45:09.394Z,14.90
2019-03-16T14:48:05.758Z,14.87
2019-03-16T14:51:05.780Z,15.06
2019-03-16T14:54:03.799Z,15.17
2019-03-16T14:57:02.115Z,15.30
2019-03-16T14:59:59.416Z,15.55
2019-03-16T15:02:54.343Z,15.58
2019-03-16T15:05:50.213Z,15.54
2019-03-16T15:08:46.870Z,15.10
2019-03-16T15:11:43.604Z,14.95
2019-03-16T15:14:39.415Z,14.72
2019-03-16T15:17:36.033Z,15.00
2019-03-16T15:20:33.704Z,15.43
2019-03-16T15:23:30.728Z,15.35
2019-03-16T15:26:26.543Z,15.22
2019-03-16T15:29:23.380Z,15.14
2019-03-16T15:32:20.185Z,15.52
2019-03-16T15:35:16.812Z,15.75
2019-03-16T15:38:12.861Z,15.87
2019-03-16T15:41:09.431Z,15.83
2019-03-16T15:44:07.253Z,15.82
2019-03-16T15:47:03.087Z,15.68
2019-03-16T15:49:59.920Z,15.60
2019-03-16T15:52:55.756Z,15.45
2019-03-16T15:55:52.378Z,15.17
2019-03-16T15:58:48.019Z,15.17
2019-03-16T16:01:45.435Z,15.01
2019-03-16T16:04:42.822Z,14.93
2019-03-16T16:07:38.632Z,14.82
2019-03-16T16:10:36.705Z,14.64
2019-03-16T16:13:32.374Z,14.53
2019-03-16T16:16:30.170Z,14.43
2019-03-16T16:19:25.804Z,14.35
2019-03-16T16:22:22.648Z,14.26
2019-03-16T16:25:18.264Z,14.19
2019-03-16T16:28:15.277Z,14.05
2019-03-16T16:31:16.457Z,14.05
2019-03-16T16:34:09.150Z,13.96
2019-03-16T16:37:07.035Z,13.84
2019-03-16T16:40:02.682Z,13.73
2019-03-16T16:43:01.497Z,13.61
2019-03-16T16:45:57.704Z,13.49
2019-03-16T16:48:58.951Z,13.42
2019-03-16T16:51:52.385Z,13.32
2019-03-16T16:54:49.464Z,13.24
2019-03-16T16:57:45.930Z,13.17
2019-03-16T17:00:42.556Z,13.08
2019-03-16T17:03:42.879Z,12.98
2019-03-16T17:06:39.059Z,12.89
2019-03-16T17:09:35.766Z,12.79
2019-03-16T17:12:31.455Z,12.70
2019-03-16T17:15:28.310Z,12.59
2019-03-16T17:18:25.242Z,12.49
2019-03-16T17:21:21.528Z,12.38
2019-03-16T17:24:17.915Z,12.27
2019-03-16T17:27:13.224Z,12.15
2019-03-16T17:30:12.995Z,12.04
2019-03-16T17:33:06.546Z,11.92
2019-03-16T17:36:03.159Z,11.85
2019-03-16T17:38:58.671Z,11.75
2019-03-16T17:41:56.858Z,11.61
2019-03-16T17:44:52.777Z,11.50
2019-03-16T17:47:51.307Z,11.36
2019-03-16T17:50:47.246Z,11.29
2019-03-16T17:53:46.850Z,11.20
